Terminal Aerodrome Forecast
Issued by NWS Sterling, VA

Current Version | Previous Version | Text Only | Print | Product List | Glossary On
Versions: 1 2 3 4 5 6 7 8 9 10 11 12 13 14 15 16 17 18 19 20 21 22
905
FTUS41 KLWX 271124
TAFDCA
TAF
KDCA 271124Z 2712/2812 31004KT P6SM BKN080
     FM271700 27008KT P6SM BKN070
     FM271800 27008KT P6SM VCTS BKN070CB
     FM272100 27009KT P6SM SCT070
     FM280200 31006KT P6SM FEW070=

USA.gov is the U.S. government's official web portal to all federal, state and local government web resources and services.